createdAt,value
2018-10-09T00:00:12.229Z,79083.36
2018-10-09T00:02:42.825Z,79081.35
2018-10-09T00:05:12.164Z,79084.36
2018-10-09T00:07:42.889Z,79073.34
2018-10-09T00:10:12.744Z,79071.34
2018-10-09T00:12:42.004Z,79085.36
2018-10-09T00:15:11.321Z,79077.34
2018-10-09T00:17:41.763Z,79084.36
2018-10-09T00:20:15.940Z,79081.35
2018-10-09T00:22:44.282Z,79089.36
2018-10-09T00:25:13.625Z,79100.38
2018-10-09T00:27:42.769Z,79102.38
2018-10-09T00:30:11.741Z,79101.38
2018-10-09T00:32:40.833Z,79107.39
2018-10-09T00:35:11.225Z,79107.39
2018-10-09T00:37:42.000Z,79101.38
2018-10-09T00:40:11.748Z,79090.36
2018-10-09T00:42:40.750Z,79086.36
2018-10-09T00:45:11.090Z,79084.36
2018-10-09T00:47:41.507Z,79089.36
2018-10-09T00:50:11.832Z,79107.39
2018-10-09T00:52:42.600Z,79101.38
2018-10-09T00:55:11.817Z,79097.38
2018-10-09T00:57:42.408Z,79099.38
2018-10-09T01:00:11.854Z,79109.39
2018-10-09T01:02:42.573Z,79108.39
2018-10-09T01:05:11.800Z,79117.41
2018-10-09T01:07:42.085Z,79115.41
2018-10-09T01:10:11.369Z,79109.39
2018-10-09T01:12:42.101Z,79121.41
2018-10-09T01:15:11.544Z,79122.41
2018-10-09T01:17:41.617Z,79126.42
2018-10-09T01:20:11.412Z,79115.41
2018-10-09T01:22:41.320Z,79118.41
2018-10-09T01:25:11.140Z,79119.41
2018-10-09T01:27:41.082Z,79125.41
2018-10-09T01:30:11.220Z,79120.41
2018-10-09T01:32:41.128Z,79119.41
2018-10-09T01:35:13.193Z,79123.41
2018-10-09T01:37:42.822Z,79125.41
2018-10-09T01:40:11.747Z,79135.44
2018-10-09T01:42:41.257Z,79148.45
2018-10-09T01:45:12.132Z,79153.45
2018-10-09T01:47:41.602Z,79164.47
2018-10-09T01:50:10.989Z,79157.47
2018-10-09T01:52:39.945Z,79169.48
2018-10-09T01:55:10.147Z,79180.50
2018-10-09T01:57:40.832Z,79179.50
2018-10-09T02:00:10.841Z,79173.48
2018-10-09T02:02:40.667Z,79174.48
2018-10-09T02:05:10.380Z,79181.50
2018-10-09T02:07:39.968Z,79178.50
2018-10-09T02:10:09.877Z,79181.50
2018-10-09T02:12:40.198Z,79174.48
2018-10-09T02:15:09.789Z,79181.50
2018-10-09T02:17:39.822Z,79186.51
2018-10-09T02:20:10.739Z,79173.48
2018-10-09T02:22:40.956Z,79176.49
2018-10-09T02:25:11.416Z,79172.48
2018-10-09T02:27:42.079Z,79177.49
2018-10-09T02:30:11.908Z,79173.48
2018-10-09T02:32:42.237Z,79168.48
2018-10-09T02:35:11.178Z,79172.48
2018-10-09T02:37:41.797Z,79173.48
2018-10-09T02:40:11.149Z,79178.50
2018-10-09T02:42:41.372Z,79187.51
2018-10-09T02:45:11.432Z,79185.50
2018-10-09T02:47:41.776Z,79196.52
2018-10-09T02:50:11.200Z,79208.54
2018-10-09T02:52:41.140Z,79225.56
2018-10-09T02:55:11.384Z,79227.56
2018-10-09T02:57:41.188Z,79232.58
2018-10-09T03:00:12.664Z,79237.58
2018-10-09T03:02:42.043Z,79235.58
2018-10-09T03:05:11.962Z,79237.58
2018-10-09T03:07:42.268Z,79240.59
2018-10-09T03:10:11.392Z,79232.58
2018-10-09T03:12:41.200Z,79237.58
2018-10-09T03:15:11.241Z,79233.58
2018-10-09T03:17:41.848Z,79227.56
2018-10-09T03:20:11.820Z,79227.56
2018-10-09T03:22:42.020Z,79222.56
2018-10-09T03:25:11.193Z,79227.56
2018-10-09T03:27:41.533Z,79227.56
2018-10-09T03:30:12.737Z,79217.55
2018-10-09T03:32:42.109Z,79218.55
2018-10-09T03:35:12.717Z,79222.56
2018-10-09T03:37:42.068Z,79223.56
2018-10-09T03:40:11.477Z,79226.56
2018-10-09T03:42:41.941Z,79225.56
2018-10-09T03:45:11.781Z,79225.56
2018-10-09T03:47:41.851Z,79229.57
2018-10-09T03:50:12.411Z,79232.58
2018-10-09T03:52:42.064Z,79227.56
2018-10-09T03:55:12.841Z,79215.55
2018-10-09T03:57:42.096Z,79216.55
2018-10-09T04:00:12.350Z,79206.53
2018-10-09T04:02:41.744Z,79205.53
2018-10-09T04:05:10.652Z,79218.55
2018-10-09T04:07:40.621Z,79219.55
2018-10-09T04:10:11.148Z,79217.55
2018-10-09T04:12:41.201Z,79225.56
2018-10-09T04:15:11.908Z,79229.57
2018-10-09T04:17:41.205Z,79223.56
2018-10-09T04:20:11.784Z,79229.57
2018-10-09T04:22:40.649Z,79239.59
2018-10-09T04:25:10.692Z,79243.59
2018-10-09T04:27:41.356Z,79239.59
2018-10-09T04:30:11.489Z,79243.59
2018-10-09T04:32:41.586Z,79242.59
2018-10-09T04:35:12.305Z,79240.59
2018-10-09T04:37:41.648Z,79246.59
2018-10-09T04:40:12.477Z,79243.59
2018-10-09T04:42:42.361Z,79246.59
2018-10-09T04:45:12.637Z,79253.61
2018-10-09T04:47:42.028Z,79249.60
2018-10-09T04:50:11.077Z,79257.61
2018-10-09T04:52:41.462Z,79261.62
2018-10-09T04:55:11.460Z,79265.63
2018-10-09T04:57:41.620Z,79265.63
2018-10-09T05:00:11.561Z,79253.61
2018-10-09T05:02:41.830Z,79252.61
2018-10-09T05:05:11.748Z,79239.59
2018-10-09T05:07:41.084Z,79222.56
2018-10-09T05:10:10.454Z,79223.56
2018-10-09T05:12:41.372Z,79222.56
2018-10-09T05:15:11.761Z,79224.56
2018-10-09T05:17:41.738Z,79211.55
2018-10-09T05:20:10.976Z,79217.55
2018-10-09T05:22:46.760Z,79221.56
2018-10-09T05:25:15.101Z,79218.55
2018-10-09T05:27:44.352Z,79206.53
2018-10-09T05:30:13.592Z,79214.55
2018-10-09T05:32:43.464Z,79220.55
2018-10-09T05:35:11.796Z,79221.56
2018-10-09T05:37:41.857Z,79232.58
2018-10-09T05:40:12.345Z,79231.58
2018-10-09T05:42:41.974Z,79242.59
2018-10-09T05:45:12.422Z,79244.59
2018-10-09T05:47:43.081Z,79249.60
2018-10-09T05:50:12.336Z,79253.61
2018-10-09T05:52:43.003Z,79258.61
2018-10-09T05:55:12.305Z,79257.61
2018-10-09T05:57:43.115Z,79249.60
2018-10-09T06:00:12.304Z,79231.58
2018-10-09T06:02:42.024Z,79229.57
2018-10-09T06:05:12.288Z,79216.55
2018-10-09T06:07:43.009Z,79216.55
2018-10-09T06:10:13.668Z,79205.53
2018-10-09T06:12:42.950Z,79203.53
2018-10-09T06:15:12.188Z,79185.50
2018-10-09T06:17:42.061Z,79176.49
2018-10-09T06:20:12.353Z,79174.48
2018-10-09T06:22:41.697Z,79182.50
2018-10-09T06:25:11.469Z,79177.49
2018-10-09T06:27:41.687Z,79179.50
2018-10-09T06:30:12.192Z,79169.48
2018-10-09T06:32:42.265Z,79175.48
2018-10-09T06:35:12.028Z,79162.47
2018-10-09T06:37:42.776Z,79163.47
2018-10-09T06:40:12.134Z,79152.45
2018-10-09T06:42:41.488Z,79135.44
2018-10-09T06:45:09.910Z,79121.41
2018-10-09T06:47:41.317Z,79105.39
2018-10-09T06:50:11.693Z,79108.39
2018-10-09T06:52:42.544Z,79096.38
2018-10-09T06:55:12.577Z,79073.34
2018-10-09T06:57:42.001Z,79059.32
2018-10-09T07:00:11.265Z,79039.30
2018-10-09T07:02:41.437Z,79029.27
2018-10-09T07:05:09.862Z,79007.25
2018-10-09T07:07:40.709Z,78988.22
2018-10-09T07:10:10.941Z,78961.18
2018-10-09T07:12:40.238Z,78943.16
2018-10-09T07:15:10.527Z,78928.13
2018-10-09T07:17:40.466Z,78906.10
2018-10-09T07:20:10.458Z,78871.05
2018-10-09T07:22:39.846Z,78866.05
2018-10-09T07:25:09.363Z,78857.03
2018-10-09T07:27:39.982Z,78831.00
2018-10-09T07:30:11.096Z,78823.98
2018-10-09T07:32:41.305Z,78797.95
2018-10-09T07:35:12.334Z,78798.95
2018-10-09T07:37:43.148Z,78798.95
2018-10-09T07:40:12.553Z,78774.92
2018-10-09T07:42:42.845Z,78756.90
2018-10-09T07:45:12.067Z,78775.92
2018-10-09T07:47:41.396Z,78778.92
2018-10-09T07:50:11.769Z,78778.92
2018-10-09T07:52:41.929Z,78761.91
2018-10-09T07:55:11.867Z,78732.86
2018-10-09T07:57:41.743Z,78743.88
2018-10-09T08:00:11.769Z,78728.86
2018-10-09T08:02:42.469Z,78722.84
2018-10-09T08:05:12.698Z,78727.86
2018-10-09T08:07:41.757Z,78715.84
2018-10-09T08:10:10.709Z,78696.81
2018-10-09T08:12:40.752Z,78658.77
2018-10-09T08:15:10.365Z,78644.75
2018-10-09T08:17:41.761Z,78620.72
2018-10-09T08:20:12.213Z,78585.67
2018-10-09T08:22:43.190Z,78558.63
2018-10-09T08:25:12.361Z,78557.63
2018-10-09T08:27:41.885Z,78543.61
2018-10-09T08:30:11.638Z,78493.55
2018-10-09T08:32:42.456Z,78493.55
2018-10-09T08:35:11.903Z,78524.59
2018-10-09T08:37:41.620Z,78504.56
2018-10-09T08:40:11.782Z,78492.55
2018-10-09T08:42:41.574Z,78464.52
2018-10-09T08:45:12.701Z,78463.52
2018-10-09T08:47:42.101Z,78448.48
2018-10-09T08:50:12.853Z,78432.47
2018-10-09T08:52:42.118Z,78423.45
2018-10-09T08:55:12.189Z,78436.48
2018-10-09T08:57:42.972Z,78407.44
2018-10-09T09:00:12.342Z,78377.41
2018-10-09T09:02:41.793Z,78381.41
2018-10-09T09:05:12.097Z,78368.39
2018-10-09T09:07:41.473Z,78348.36
2018-10-09T09:10:11.785Z,78333.34
2018-10-09T09:12:41.910Z,78302.31
2018-10-09T09:15:12.837Z,78288.30
2018-10-09T09:17:42.373Z,78261.27
2018-10-09T09:20:11.726Z,78234.23
2018-10-09T09:22:43.081Z,78212.20
2018-10-09T09:25:12.086Z,78203.19
2018-10-09T09:27:41.532Z,78196.18
2018-10-09T09:30:11.768Z,78199.19
2018-10-09T09:32:42.450Z,78199.19
2018-10-09T09:35:13.226Z,78202.19
2018-10-09T09:37:42.997Z,78188.17
2018-10-09T09:40:12.226Z,78199.19
2018-10-09T09:42:43.069Z,78206.19
2018-10-09T09:45:12.306Z,78213.20
2018-10-09T09:47:42.953Z,78204.19
2018-10-09T09:50:12.309Z,78203.19
2018-10-09T09:52:41.578Z,78202.19
2018-10-09T09:55:11.355Z,78203.19
2018-10-09T09:57:41.781Z,78191.17
2018-10-09T10:00:17.499Z,78157.13
2018-10-09T10:02:46.783Z,78158.13
2018-10-09T10:05:16.197Z,78147.13
2018-10-09T10:07:45.565Z,78110.08
2018-10-09T10:10:14.838Z,78078.05
2018-10-09T10:12:44.276Z,78038.00
2018-10-09T10:15:13.537Z,78023.98
2018-10-09T10:17:41.875Z,77997.95
2018-10-09T10:20:12.320Z,77977.93
2018-10-09T10:22:43.067Z,77955.91
2018-10-09T10:25:12.156Z,77925.87
2018-10-09T10:27:41.973Z,77903.84
2018-10-09T10:30:12.689Z,77894.84
2018-10-09T10:32:42.619Z,77920.86
2018-10-09T10:35:12.116Z,77940.88
2018-10-09T10:37:42.017Z,77943.89
2018-10-09T10:40:12.771Z,77943.89
2018-10-09T10:42:42.057Z,77927.88
2018-10-09T10:45:12.482Z,77899.84
2018-10-09T10:47:42.006Z,77879.81
2018-10-09T10:50:12.328Z,77868.80
2018-10-09T10:52:43.181Z,77866.80
2018-10-09T10:55:12.541Z,77836.77
2018-10-09T10:57:43.225Z,77799.73
2018-10-09T11:00:14.021Z,77809.74
2018-10-09T11:02:42.413Z,77795.73
2018-10-09T11:05:13.081Z,77769.70
2018-10-09T11:07:42.542Z,77739.66
2018-10-09T11:10:13.286Z,77714.64
2018-10-09T11:12:42.459Z,77698.63
2018-10-09T11:15:13.174Z,77683.61
2018-10-09T11:17:42.194Z,77665.59
2018-10-09T11:20:13.157Z,77655.58
2018-10-09T11:22:42.009Z,77664.59
2018-10-09T11:25:12.474Z,77663.59
2018-10-09T11:27:42.045Z,77633.55
2018-10-09T11:30:12.446Z,77609.53
2018-10-09T11:32:43.162Z,77575.49
2018-10-09T11:35:13.448Z,77556.48
2018-10-09T11:37:43.460Z,77531.45
2018-10-09T11:40:13.617Z,77522.44
2018-10-09T11:42:43.216Z,77510.43
2018-10-09T11:45:13.782Z,77465.38
2018-10-09T11:47:43.113Z,77444.36
2018-10-09T11:50:12.503Z,77405.33
2018-10-09T11:52:41.854Z,77418.34
2018-10-09T11:55:12.062Z,77435.36
2018-10-09T11:57:42.297Z,77445.36
2018-10-09T12:00:11.672Z,77423.34
2018-10-09T12:02:41.176Z,77437.36
2018-10-09T12:05:11.132Z,77411.33
2018-10-09T12:07:40.753Z,77427.34
2018-10-09T12:10:11.141Z,77416.34
2018-10-09T12:12:40.265Z,77441.36
2018-10-09T12:15:09.717Z,77457.38
2018-10-09T12:17:38.884Z,77441.36
2018-10-09T12:20:07.270Z,77439.36
2018-10-09T12:22:35.636Z,77464.38
2018-10-09T12:25:04.001Z,77458.38
2018-10-09T12:27:32.357Z,77449.37
2018-10-09T12:30:00.694Z,77454.38
2018-10-09T12:32:29.034Z,77452.38
2018-10-09T12:34:57.403Z,77451.38
2018-10-09T12:37:26.702Z,77425.34
2018-10-09T12:39:56.061Z,77412.34
2018-10-09T12:42:24.413Z,77384.30
2018-10-09T12:44:52.762Z,77371.30
2018-10-09T12:47:21.109Z,77386.31
2018-10-09T12:49:49.447Z,77383.30
2018-10-09T12:52:17.786Z,77386.31
2018-10-09T12:54:46.193Z,77376.30
2018-10-09T12:57:14.598Z,77345.27
2018-10-09T12:59:43.442Z,77333.26
2018-10-09T13:02:11.807Z,77357.28
2018-10-09T13:04:43.567Z,77366.29
2018-10-09T13:07:12.773Z,77347.27
2018-10-09T13:09:42.130Z,77343.27
2018-10-09T13:12:12.442Z,77347.27
2018-10-09T13:14:43.097Z,77355.28
2018-10-09T13:17:12.645Z,77365.29
2018-10-09T13:19:41.864Z,77372.30
2018-10-09T13:22:12.247Z,77363.28
2018-10-09T13:24:43.012Z,77373.30
2018-10-09T13:27:12.936Z,77371.30
2018-10-09T13:29:42.269Z,77378.30
2018-10-09T13:32:13.000Z,77381.30
2018-10-09T13:34:42.152Z,77381.30
2018-10-09T13:37:12.393Z,77373.30
2018-10-09T13:39:41.827Z,77395.31
2018-10-09T13:42:12.135Z,77388.31
2018-10-09T13:44:41.488Z,77366.29
2018-10-09T13:47:11.686Z,77365.29
2018-10-09T13:49:42.344Z,77380.30
2018-10-09T13:52:13.201Z,77383.30
2018-10-09T13:54:43.721Z,77375.30
2018-10-09T13:57:12.992Z,77365.29
2018-10-09T13:59:42.154Z,77381.30
2018-10-09T14:02:11.070Z,77384.30
2018-10-09T14:04:41.082Z,77379.30
2018-10-09T14:07:11.989Z,77389.31
2018-10-09T14:09:42.620Z,77371.30
2018-10-09T14:12:12.023Z,77366.29
2018-10-09T14:14:41.875Z,77375.30
2018-10-09T14:17:11.689Z,77396.32
2018-10-09T14:19:41.425Z,77396.32
2018-10-09T14:22:11.200Z,77379.30
2018-10-09T14:24:41.229Z,77375.30
2018-10-09T14:27:11.105Z,77367.29
2018-10-09T14:29:41.461Z,77383.30
2018-10-09T14:32:11.745Z,77376.30
2018-10-09T14:34:42.104Z,77381.30
2018-10-09T14:37:11.432Z,77408.33
2018-10-09T14:39:41.129Z,77421.34
2018-10-09T14:42:11.217Z,77403.33
2018-10-09T14:44:40.860Z,77407.33
2018-10-09T14:47:10.357Z,77432.35
2018-10-09T14:49:39.825Z,77425.34
2018-10-09T14:52:08.813Z,77437.36
2018-10-09T14:54:37.949Z,77450.38
2018-10-09T14:57:06.327Z,77462.38
2018-10-09T14:59:34.674Z,77468.39
2018-10-09T15:02:05.762Z,77481.40
2018-10-09T15:04:34.145Z,77501.42
2018-10-09T15:07:02.511Z,77513.44
2018-10-09T15:09:31.030Z,77524.45
2018-10-09T15:11:59.365Z,77547.47
2018-10-09T15:14:27.702Z,77566.48
2018-10-09T15:16:56.064Z,77584.50
2018-10-09T15:19:24.422Z,77597.52
2018-10-09T15:21:52.757Z,77602.52
2018-10-09T15:24:21.091Z,77614.53
2018-10-09T15:26:49.425Z,77626.55
2018-10-09T15:29:17.766Z,77634.55
2018-10-09T15:31:46.174Z,77647.56
2018-10-09T15:34:14.572Z,77657.58
2018-10-09T15:36:42.937Z,77675.59
2018-10-09T15:39:13.177Z,77685.61
2018-10-09T15:41:42.889Z,77695.63
2018-10-09T15:44:12.078Z,77709.63
2018-10-09T15:46:41.360Z,77722.65
2018-10-09T15:49:11.297Z,77734.66
2018-10-09T15:51:41.261Z,77762.69
2018-10-09T15:54:11.718Z,77777.70
2018-10-09T15:56:41.588Z,77788.72
2018-10-09T15:59:11.649Z,77808.73
2018-10-09T16:01:41.481Z,77825.76
2018-10-09T16:04:11.354Z,77831.77
2018-10-09T16:06:42.140Z,77847.78
2018-10-09T16:09:12.149Z,77861.80
2018-10-09T16:11:41.610Z,77872.81
2018-10-09T16:14:11.472Z,77875.81
2018-10-09T16:16:41.619Z,77886.83
2018-10-09T16:19:12.989Z,77886.83
2018-10-09T16:21:42.444Z,77893.83
2018-10-09T16:24:11.414Z,77899.84
2018-10-09T16:26:42.037Z,77910.85
2018-10-09T16:29:12.017Z,77921.86
2018-10-09T16:31:42.370Z,77938.88
2018-10-09T16:34:11.733Z,77953.90
2018-10-09T16:36:41.717Z,77963.91
2018-10-09T16:39:13.248Z,77975.92
2018-10-09T16:41:43.797Z,77987.94
2018-10-09T16:44:13.774Z,78003.95
2018-10-09T16:46:43.456Z,78011.97
2018-10-09T16:49:12.705Z,78021.98
2018-10-09T16:51:41.985Z,78028.98
2018-10-09T16:54:11.414Z,78035.99
2018-10-09T16:56:41.757Z,78044.00
2018-10-09T16:59:11.674Z,78051.01
2018-10-09T17:01:42.108Z,78050.01
2018-10-09T17:04:12.653Z,78065.03
2018-10-09T17:06:41.883Z,78070.03
2018-10-09T17:09:12.165Z,78089.05
2018-10-09T17:11:42.693Z,78096.06
2018-10-09T17:14:12.668Z,78106.08
2018-10-09T17:16:42.100Z,78111.08
2018-10-09T17:19:12.078Z,78123.09
2018-10-09T17:21:42.640Z,78129.10
2018-10-09T17:24:11.867Z,78143.12
2018-10-09T17:26:41.772Z,78148.13
2018-10-09T17:29:12.023Z,78160.14
2018-10-09T17:31:42.310Z,78176.16
2018-10-09T17:34:13.329Z,78179.16
2018-10-09T17:36:44.027Z,78179.16
2018-10-09T17:39:13.619Z,78185.17
2018-10-09T17:41:42.754Z,78182.16
2018-10-09T17:44:12.456Z,78188.17
2018-10-09T17:46:43.244Z,78180.16
2018-10-09T17:49:13.430Z,78187.17
2018-10-09T17:51:42.695Z,78199.19
2018-10-09T17:54:12.577Z,78200.19
2018-10-09T17:56:43.751Z,78206.19
2018-10-09T17:59:13.005Z,78212.20
2018-10-09T18:01:42.377Z,78220.20
2018-10-09T18:04:12.573Z,78225.22
2018-10-09T18:06:41.821Z,78228.22
2018-10-09T18:09:12.993Z,78231.22
2018-10-09T18:11:42.680Z,78240.23
2018-10-09T18:14:12.565Z,78242.23
2018-10-09T18:16:41.806Z,78248.24
2018-10-09T18:19:11.866Z,78250.25
2018-10-09T18:21:41.560Z,78259.26
2018-10-09T18:24:11.626Z,78261.27
2018-10-09T18:26:41.729Z,78268.27
2018-10-09T18:29:11.851Z,78279.28
2018-10-09T18:31:41.297Z,78284.29
2018-10-09T18:34:10.946Z,78288.30
2018-10-09T18:36:41.229Z,78294.30
2018-10-09T18:39:13.966Z,78301.31
2018-10-09T18:41:42.479Z,78298.30
2018-10-09T18:44:13.425Z,78301.31
2018-10-09T18:46:43.161Z,78303.31
2018-10-09T18:49:12.238Z,78298.30
2018-10-09T18:51:42.067Z,78300.31
2018-10-09T18:54:12.063Z,78314.33
2018-10-09T18:56:42.512Z,78318.33
2018-10-09T18:59:12.080Z,78324.34
2018-10-09T19:01:42.151Z,78321.33
2018-10-09T19:04:12.798Z,78324.34
2018-10-09T19:06:42.152Z,78321.33
2018-10-09T19:09:12.921Z,78329.34
2018-10-09T19:11:42.037Z,78329.34
2018-10-09T19:14:11.918Z,78336.35
2018-10-09T19:16:41.795Z,78349.37
2018-10-09T19:19:11.442Z,78352.38
2018-10-09T19:21:42.053Z,78352.38
2018-10-09T19:24:12.565Z,78357.38
2018-10-09T19:26:41.923Z,78357.38
2018-10-09T19:29:12.670Z,78362.38
2018-10-09T19:31:42.014Z,78372.39
2018-10-09T19:34:11.877Z,78372.39
2018-10-09T19:36:41.414Z,78381.41
2018-10-09T19:39:12.874Z,78384.41
2018-10-09T19:41:42.280Z,78394.42
2018-10-09T19:44:12.063Z,78388.41
2018-10-09T19:46:41.850Z,78392.42
2018-10-09T19:49:12.349Z,78381.41
2018-10-09T19:51:43.087Z,78384.41
2018-10-09T19:54:11.913Z,78392.42
2018-10-09T19:56:42.245Z,78396.42
2018-10-09T19:59:12.346Z,78407.44
2018-10-09T20:01:41.617Z,78411.45
2018-10-09T20:04:11.370Z,78418.45
2018-10-09T20:06:40.944Z,78427.47
2018-10-09T20:09:13.068Z,78437.48
2018-10-09T20:11:42.214Z,78452.50
2018-10-09T20:14:13.556Z,78461.51
2018-10-09T20:16:42.533Z,78473.52
2018-10-09T20:19:12.620Z,78481.53
2018-10-09T20:21:41.519Z,78481.53
2018-10-09T20:24:11.993Z,78492.55
2018-10-09T20:26:41.666Z,78498.55
2018-10-09T20:29:11.794Z,78506.56
2018-10-09T20:31:42.157Z,78504.56
2018-10-09T20:34:12.301Z,78512.58
2018-10-09T20:36:41.389Z,78513.58
2018-10-09T20:39:10.812Z,78520.58
2018-10-09T20:41:41.207Z,78521.59
2018-10-09T20:44:10.922Z,78519.58
2018-10-09T20:46:41.574Z,78513.58
2018-10-09T20:49:11.918Z,78510.57
2018-10-09T20:51:41.225Z,78512.58
2018-10-09T20:54:13.322Z,78515.58
2018-10-09T20:56:42.461Z,78509.57
2018-10-09T20:59:11.538Z,78503.56
2018-10-09T21:01:41.558Z,78502.56
2018-10-09T21:04:11.872Z,78494.55
2018-10-09T21:06:41.532Z,78495.55
2018-10-09T21:09:13.494Z,78503.56
2018-10-09T21:11:43.172Z,78500.56
2018-10-09T21:14:13.553Z,78502.56
2018-10-09T21:16:42.805Z,78509.57
2018-10-09T21:19:13.021Z,78510.57
2018-10-09T21:21:43.097Z,78515.58
2018-10-09T21:24:12.327Z,78516.58
2018-10-09T21:26:41.317Z,78517.58
2018-10-09T21:29:10.413Z,78521.59
2018-10-09T21:31:40.752Z,78526.59
2018-10-09T21:34:09.782Z,78531.59
2018-10-09T21:36:38.268Z,78532.59
2018-10-09T21:39:10.496Z,78535.60
2018-10-09T21:41:40.767Z,78536.60
2018-10-09T21:44:10.506Z,78535.60
2018-10-09T21:46:39.940Z,78534.60
2018-10-09T21:49:09.590Z,78538.61
2018-10-09T21:51:39.945Z,78547.62
2018-10-09T21:54:11.318Z,78560.64
2018-10-09T21:56:41.605Z,78577.66
2018-10-09T21:59:11.517Z,78580.66
2018-10-09T22:01:39.869Z,78578.66
2018-10-09T22:04:10.303Z,78577.66
2018-10-09T22:06:39.204Z,78582.66
2018-10-09T22:09:08.304Z,78578.66
2018-10-09T22:11:37.631Z,78584.67
2018-10-09T22:14:06.041Z,78590.67
2018-10-09T22:16:35.275Z,78595.68
2018-10-09T22:19:04.689Z,78596.69
2018-10-09T22:21:34.070Z,78602.69
2018-10-09T22:24:03.318Z,78599.69
2018-10-09T22:26:32.582Z,78596.69
2018-10-09T22:29:01.803Z,78598.69
2018-10-09T22:31:30.154Z,78611.70
2018-10-09T22:33:59.409Z,78609.70
2018-10-09T22:36:28.753Z,78613.70
2018-10-09T22:38:57.106Z,78621.72
2018-10-09T22:41:26.461Z,78631.73
2018-10-09T22:43:55.768Z,78629.73
2018-10-09T22:46:24.862Z,78634.73
2018-10-09T22:48:54.131Z,78634.73
2018-10-09T22:51:23.375Z,78636.73
2018-10-09T22:53:51.756Z,78647.75
2018-10-09T22:56:21.181Z,78643.74
2018-10-09T22:58:50.587Z,78644.75
2018-10-09T23:01:19.841Z,78648.75
2018-10-09T23:03:49.218Z,78648.75
2018-10-09T23:06:18.460Z,78648.75
2018-10-09T23:08:47.974Z,78638.73
2018-10-09T23:11:16.756Z,78634.73
2018-10-09T23:13:45.524Z,78623.72
2018-10-09T23:16:14.743Z,78629.73
2018-10-09T23:18:44.092Z,78632.73
2018-10-09T23:21:13.466Z,78634.73
2018-10-09T23:23:42.726Z,78644.75
2018-10-09T23:26:11.965Z,78646.75
2018-10-09T23:28:42.089Z,78648.75
2018-10-09T23:31:11.497Z,78652.76
2018-10-09T23:33:42.504Z,78656.77
2018-10-09T23:36:12.029Z,78662.77
2018-10-09T23:38:42.316Z,78665.77
2018-10-09T23:41:12.164Z,78665.77
2018-10-09T23:43:42.829Z,78663.77
2018-10-09T23:46:12.261Z,78669.78
2018-10-09T23:48:41.925Z,78668.78
2018-10-09T23:51:12.180Z,78668.78
2018-10-09T23:53:41.965Z,78668.78
2018-10-09T23:56:12.652Z,78661.77
2018-10-09T23:58:42.021Z,78660.77
